Massillon, Ohio
Current Conditions -  °F | °C
As of 10:51 PM on Saturday 20 Dec 2014 (Local Time) from KCAK Reporting Station
Overcast Overcast  
Wind Chill: 29°   Ceiling: 2800
Heat Index: 29°   Visibility: 10mi
Dew Point: 22°   Wind: 0mph
Humidity: 75%   Direction: NA
Pressure: 30.26"   Gusts: NA
Location:  40.79°N, 81.52°W
Report Text: KCAK 210351Z 00000KT 10SM OVC028 M02/M06 A3026 RMK AO2 SLP262 T10171056
Loading
Personal Weather Stations






























Interactive Weather Map New forecast layout! Learn more

10-Day Weather Forecast

Advertisements
Track Severe Weather on mobile